Dahinda, Illinois
Current Conditions -  °F | °C
As of 11:15 PM on Sunday 19 Oct 2014 (Local Time) from KGBG Reporting Station
Clear Clear  
Wind Chill: 45°   Ceiling: Unl
Heat Index: 48°   Visibility: 10mi
Dew Point: 43°   Wind: 6mph
Humidity: 85%   Direction: 190°S
Pressure: 29.95"   Gusts: NA
Location:  40.92°N, 90.11°W
Report Text: KGBG 200415Z AUTO 19005KT 10SM CLR 09/06 A2995 RMK AO2 T00870063
Loading
Personal Weather Stations






























Interactive Weather Map
Tropical Storm Tracking
New forecast layout! Learn more

10-Day Weather Forecast

Advertisements
Track Severe Weather on mobile